Time;durP1;ratioP1;P1;durP2;ratioP2;P2;SDS_P1;SDS_P2;PMS_P1;PMS_P2;Temp;Humidity;BMP_temperature;BMP_pressure;BME280_temperature;BME280_humidity;BME280_pressure;Samples;Min_cycle;Max_cycle;Signal;HPM_P1;HPM_P2
2021/06/14 00:00:25;;;;;;;;;;;14.00;54.10;;;;;;5046130;28;20619;-68
2021/06/14 00:02:51;;;;;;;2.33;0.63;;;14.00;54.70;;;;;;5043835;28;19909;-68
2021/06/14 00:05:37;;;;;;;3.95;0.88;;;14.00;54.30;;;;;;5043678;28;20021;-67
2021/06/14 00:08:16;;;;;;;3.90;1.00;;;14.00;54.80;;;;;;5044883;28;20017;-68
2021/06/14 00:10:43;;;;;;;4.28;0.98;;;13.90;55.20;;;;;;5044979;28;20065;-67
2021/06/14 00:13:09;;;;;;;4.15;1.10;;;13.90;55.40;;;;;;5045355;28;20047;-68
2021/06/14 00:15:36;;;;;;;5.95;1.60;;;13.80;55.40;;;;;;5045766;28;20401;-67
2021/06/14 00:18:03;;;;;;;2.72;0.68;;;13.80;55.40;;;;;;5043912;28;20494;-67
2021/06/14 00:20:29;;;;;;;4.22;0.85;;;13.80;55.80;;;;;;5044880;28;20143;-67
2021/06/14 00:22:54;;;;;;;;;;;13.80;56.30;;;;;;5045464;28;20577;-68
2021/06/14 00:25:23;;;;;;;3.90;0.80;;;13.60;58.30;;;;;;5043158;28;19905;-68
2021/06/14 00:27:49;;;;;;;5.53;0.80;;;13.60;58.20;;;;;;5045251;28;20044;-68
2021/06/14 00:30:17;;;;;;;;;;;13.50;58.30;;;;;;5045237;28;20033;-69
2021/06/14 00:32:43;;;;;;;3.47;1.08;;;13.40;58.60;;;;;;5044948;28;19915;-68
2021/06/14 00:35:09;;;;;;;4.18;0.88;;;13.40;58.10;;;;;;5027325;28;521661;-67
2021/06/14 00:37:34;;;;;;;;;;;13.30;58.30;;;;;;5045696;28;20572;-68
2021/06/14 00:40:00;;;;;;;4.30;1.05;;;13.30;58.90;;;;;;5045822;28;19948;-68
2021/06/14 00:42:25;;;;;;;;;;;13.30;58.20;;;;;;5046035;28;20476;-68
2021/06/14 00:44:51;;;;;;;2.88;0.77;;;13.30;57.00;;;;;;5045478;28;20392;-68
2021/06/14 00:47:17;;;;;;;;;;;13.40;57.30;;;;;;5045991;28;20374;-68
2021/06/14 00:49:42;;;;;;;2.55;0.80;;;13.50;57.90;;;;;;5045652;28;20392;-68
2021/06/14 00:52:08;;;;;;;;;;;13.50;57.30;;;;;;5046043;28;20025;-68
2021/06/14 00:54:34;;;;;;;3.63;0.70;;;13.50;57.60;;;;;;5045465;28;19909;-68
2021/06/14 00:56:59;;;;;;;;;;;13.50;57.80;;;;;;5046220;28;20358;-68
2021/06/14 00:59:25;;;;;;;2.65;0.70;;;13.50;57.90;;;;;;5045657;28;19908;-68
2021/06/14 01:01:51;;;;;;;;;;;13.50;57.20;;;;;;5046278;28;20059;-68
2021/06/14 01:04:17;;;;;;;3.55;0.70;;;13.50;57.10;;;;;;5044459;28;19912;-68
2021/06/14 01:06:46;;;;;;;5.28;0.80;;;13.60;56.80;;;;;;5045069;28;20017;-68
2021/06/14 01:09:12;;;;;;;7.53;1.00;;;13.60;57.00;;;;;;5044080;28;20033;-69
2021/06/14 01:11:43;;;;;;;;;;;13.60;58.10;;;;;;5045838;28;20037;-67
2021/06/14 01:14:38;;;;;;;10.88;0.93;;;13.60;58.20;;;;;;5045559;28;20293;-69
2021/06/14 01:17:18;;;;;;;4.13;0.75;;;13.60;57.40;;;;;;5045544;28;20036;-69
2021/06/14 01:20:15;;;;;;;7.22;0.80;;;13.60;57.80;;;;;;5045668;28;20051;-68
2021/06/14 01:22:59;;;;;;;3.67;0.90;;;13.60;56.60;;;;;;5045204;28;20024;-69
2021/06/14 01:26:23;;;;;;;2.88;0.70;;;13.70;56.60;;;;;;5044860;28;20025;-69
2021/06/14 01:28:53;;;;;;;3.10;0.75;;;13.80;56.80;;;;;;5031969;28;20041;-69
2021/06/14 01:31:19;;;;;;;5.97;0.77;;;13.80;56.50;;;;;;5048882;28;20064;-69
2021/06/14 01:33:46;;;;;;;4.35;0.88;;;13.90;56.10;;;;;;5048733;28;20448;-70
2021/06/14 01:36:15;;;;;;;5.07;1.10;;;13.90;56.00;;;;;;5048648;28;20060;-69
2021/06/14 01:38:45;;;;;;;4.15;0.80;;;13.90;56.00;;;;;;5046922;28;20037;-69
2021/06/14 01:41:12;;;;;;;4.93;1.23;;;14.00;55.60;;;;;;5048871;28;20025;-69
2021/06/14 01:43:40;;;;;;;8.05;0.73;;;14.00;55.60;;;;;;5048903;28;20199;-69
2021/06/14 01:46:18;;;;;;;4.82;0.75;;;14.10;55.40;;;;;;5048743;28;20496;-68
2021/06/14 01:48:45;;;;;;;5.00;1.02;;;14.10;55.20;;;;;;5048387;28;20021;-69
2021/06/14 01:51:13;;;;;;;2.97;1.17;;;14.20;54.50;;;;;;5048486;28;20405;-69
2021/06/14 01:53:39;;;;;;;4.97;0.90;;;14.30;53.90;;;;;;5048531;28;20501;-69
2021/06/14 01:56:09;;;;;;;6.78;0.95;;;14.40;53.40;;;;;;5048065;28;20025;-69
2021/06/14 01:58:39;;;;;;;3.45;1.17;;;14.50;53.60;;;;;;5047148;28;20667;-68
2021/06/14 02:01:05;;;;;;;6.05;0.93;;;14.50;53.70;;;;;;5048179;28;20111;-70
2021/06/14 02:03:32;;;;;;;5.60;0.80;;;14.50;53.40;;;;;;5048003;28;20036;-69
2021/06/14 02:06:01;;;;;;;2.60;0.70;;;14.60;53.20;;;;;;5048196;28;20521;-69
2021/06/14 02:08:28;;;;;;;3.08;0.90;;;14.70;53.00;;;;;;5047895;28;20021;-69
2021/06/14 02:10:56;;;;;;;3.45;0.80;;;14.70;53.00;;;;;;5048289;28;20040;-68
2021/06/14 02:13:22;;;;;;;3.63;0.85;;;14.70;52.90;;;;;;5048170;28;20405;-69
2021/06/14 02:15:47;;;;;;;7.47;1.10;;;14.70;52.80;;;;;;5048218;28;20025;-69
2021/06/14 02:18:14;;;;;;;;;;;14.70;52.70;;;;;;5048606;28;20021;-69
2021/06/14 02:20:42;;;;;;;3.35;0.52;;;14.70;52.60;;;;;;5047528;28;19915;-70
2021/06/14 02:23:07;;;;;;;3.22;0.68;;;14.70;52.50;;;;;;5047898;28;20021;-69
2021/06/14 02:25:33;;;;;;;;;;;14.70;53.00;;;;;;5048198;28;20033;-69
2021/06/14 02:27:59;;;;;;;3.03;0.70;;;14.70;53.50;;;;;;5047927;28;20015;-69
2021/06/14 02:30:26;;;;;;;;;;;14.60;53.60;;;;;;5048565;28;20043;-69
2021/06/14 02:32:53;;;;;;;4.10;0.82;;;14.60;54.00;;;;;;5047662;28;19905;-68
2021/06/14 02:35:20;;;;;;;6.25;0.82;;;14.40;54.60;;;;;;5047482;28;20087;-70
2021/06/14 02:37:54;;;;;;;4.70;0.90;;;14.30;55.10;;;;;;5047430;28;20401;-69
2021/06/14 02:40:26;;;;;;;1.75;0.70;;;14.20;55.80;;;;;;5046563;28;20516;-69
2021/06/14 02:42:52;;;;;;;3.30;0.80;;;14.20;56.50;;;;;;5047839;28;20036;-69
2021/06/14 02:45:18;;;;;;;3.90;0.88;;;14.00;57.10;;;;;;5047568;28;20043;-69
2021/06/14 02:47:46;;;;;;;5.72;1.15;;;14.00;58.10;;;;;;5047268;28;20083;-69
2021/06/14 02:50:14;;;;;;;5.45;0.70;;;13.90;59.60;;;;;;5045941;28;20067;-69
2021/06/14 02:52:41;;;;;;;5.63;1.10;;;13.70;59.70;;;;;;5046995;28;20115;-68
2021/06/14 02:55:15;;;;;;;7.18;0.95;;;13.70;59.90;;;;;;5029908;28;20039;-69
2021/06/14 02:57:47;;;;;;;2.22;0.60;;;13.60;60.40;;;;;;5047175;28;20033;-69
2021/06/14 03:00:13;;;;;;;3.72;1.10;;;13.60;60.30;;;;;;5047374;28;20367;-69
2021/06/14 03:02:41;;;;;;;4.72;1.20;;;13.40;60.90;;;;;;5047326;28;20071;-69
2021/06/14 03:05:08;;;;;;;6.45;1.08;;;13.40;61.40;;;;;;5046710;28;20028;-69
2021/06/14 03:07:34;;;;;;;6.60;1.00;;;13.40;61.70;;;;;;5046871;28;20056;-69
2021/06/14 03:09:59;;;;;;;;;;;13.30;62.60;;;;;;5047175;28;20076;-69
2021/06/14 03:12:26;;;;;;;4.47;0.95;;;13.30;64.10;;;;;;5047240;28;19908;-69
2021/06/14 03:14:52;;;;;;;5.20;1.10;;;13.20;64.80;;;;;;5047007;28;20039;-68
2021/06/14 03:17:18;;;;;;;;;;;13.20;64.30;;;;;;5046925;28;20111;-69
2021/06/14 03:19:48;;;;;;;4.87;1.30;;;13.30;63.50;;;;;;5047275;28;20408;-69
2021/06/14 03:22:15;;;;;;;2.72;1.00;;;13.30;64.40;;;;;;5046782;28;20047;-69
2021/06/14 03:24:41;;;;;;;6.20;0.70;;;13.30;64.60;;;;;;5045379;28;20437;-69
2021/06/14 03:27:08;;;;;;;;;;;13.30;64.40;;;;;;5047367;28;20061;-69
2021/06/14 03:29:35;;;;;;;4.95;0.93;;;13.30;65.10;;;;;;5046616;28;20392;-69
2021/06/14 03:32:02;;;;;;;4.18;0.65;;;13.40;64.30;;;;;;5046789;28;20035;-69
2021/06/14 03:34:31;;;;;;;2.42;0.73;;;13.60;63.80;;;;;;5046650;28;20068;-69
2021/06/14 03:36:58;;;;;;;3.30;0.60;;;13.90;63.00;;;;;;5046036;28;20035;-69
2021/06/14 03:39:25;;;;;;;7.28;0.90;;;14.10;62.20;;;;;;5046119;28;20025;-69
2021/06/14 03:41:51;;;;;;;2.42;0.70;;;14.40;61.30;;;;;;5046659;28;20490;-68
2021/06/14 03:44:18;;;;;;;6.38;1.25;;;14.50;60.00;;;;;;5046638;28;20017;-68
2021/06/14 03:46:45;;;;;;;6.10;0.80;;;14.70;59.90;;;;;;5046387;28;20130;-67
2021/06/14 03:49:11;;;;;;;2.35;0.50;;;14.90;59.50;;;;;;5046021;28;20047;-69
2021/06/14 03:51:36;;;;;;;;;;;15.00;58.90;;;;;;5046210;28;20033;-70
2021/06/14 03:54:03;;;;;;;3.25;0.70;;;15.20;58.70;;;;;;5046241;28;20266;-69
2021/06/14 03:56:31;;;;;;;2.78;0.60;;;15.20;57.90;;;;;;5046385;28;20059;-69
2021/06/14 03:58:57;;;;;;;5.00;0.90;;;15.40;57.80;;;;;;5044720;28;20029;-69
2021/06/14 04:01:23;;;;;;;3.42;1.00;;;15.50;57.60;;;;;;5046227;28;20017;-69
2021/06/14 04:06:21;;;;;;;5.13;1.20;;;15.80;56.90;;;;;;5045854;28;20029;-69
2021/06/14 04:08:47;;;;;;;;;;;15.90;56.60;;;;;;5046677;28;20039;-68
2021/06/14 04:11:12;;;;;;;3.05;0.70;;;16.10;55.80;;;;;;5045867;28;19996;-69
2021/06/14 04:13:38;;;;;;;;;;;16.40;54.30;;;;;;5046773;28;20056;-69
2021/06/14 04:16:04;;;;;;;5.60;0.90;;;16.80;53.10;;;;;;5045839;28;19911;-68
2021/06/14 04:18:30;;;;;;;3.08;0.90;;;17.10;52.60;;;;;;5046243;28;20133;-69
2021/06/14 04:20:55;;;;;;;;;;;17.40;50.90;;;;;;5046348;28;20103;-69
2021/06/14 04:23:21;;;;;;;5.03;0.90;;;17.60;50.50;;;;;;5046058;28;19909;-69
2021/06/14 04:25:46;;;;;;;;;;;17.70;49.90;;;;;;5046613;28;20040;-69
2021/06/14 04:28:12;;;;;;;1.75;0.50;;;17.70;49.80;;;;;;5046075;28;19974;-68
2021/06/14 04:30:38;;;;;;;3.75;0.80;;;17.70;49.50;;;;;;5046124;28;20840;-69
2021/06/14 04:33:04;;;;;;;8.43;0.70;;;17.70;49.30;;;;;;5044702;28;20543;-69
2021/06/14 04:35:30;;;;;;;4.43;0.98;;;17.40;50.80;;;;;;5045165;28;20067;-68
2021/06/14 04:37:56;;;;;;;3.17;0.80;;;17.30;50.30;;;;;;5045540;28;20021;-68
2021/06/14 04:40:21;;;;;;;5.25;0.88;;;17.00;51.30;;;;;;5044977;28;20036;-69
2021/06/14 04:42:47;;;;;;;;;;;16.80;52.20;;;;;;5046378;28;20075;-69
2021/06/14 04:45:13;;;;;;;2.35;0.70;;;16.70;52.80;;;;;;5045388;28;20351;-68
2021/06/14 04:47:40;;;;;;;2.80;1.02;;;16.70;53.20;;;;;;5045903;28;20039;-69
2021/06/14 04:50:06;;;;;;;12.18;2.60;;;16.60;54.00;;;;;;5045734;28;20144;-69
2021/06/14 04:52:32;;;;;;;1.63;0.65;;;16.60;53.80;;;;;;5045731;28;20021;-70
2021/06/14 04:54:58;;;;;;;;;;;16.40;54.00;;;;;;5046089;28;20036;-69
2021/06/14 04:57:24;;;;;;;3.63;0.70;;;16.50;54.20;;;;;;5045647;28;19909;-70
2021/06/14 04:59:49;;;;;;;3.17;0.65;;;16.40;54.50;;;;;;5044268;28;20406;-69
2021/06/14 05:02:15;;;;;;;;;;;16.50;54.40;;;;;;5046311;28;20036;-69
2021/06/14 05:04:40;;;;;;;2.72;0.68;;;16.50;54.20;;;;;;5046975;28;20460;-69
2021/06/14 05:07:06;;;;;;;;;;;16.60;54.10;;;;;;5049640;28;20029;-69
2021/06/14 05:09:31;;;;;;;5.10;0.73;;;16.60;54.30;;;;;;5049299;28;19923;-68
2021/06/14 05:11:57;;;;;;;;;;;16.60;54.20;;;;;;5048226;28;20025;-67
2021/06/14 05:14:23;;;;;;;4.53;0.80;;;16.60;54.50;;;;;;5049568;28;20331;-68
2021/06/14 05:16:48;;;;;;;;;;;16.60;54.40;;;;;;5049971;28;20036;-68
2021/06/14 05:19:14;;;;;;;4.25;0.65;;;16.90;53.50;;;;;;5048687;28;19916;-67
2021/06/14 05:21:40;;;;;;;;;;;16.90;53.90;;;;;;5047815;28;20492;-68
2021/06/14 05:24:06;;;;;;;8.80;0.95;;;17.10;53.60;;;;;;5048909;28;19958;-68
2021/06/14 05:26:31;;;;;;;;;;;17.30;53.20;;;;;;5049697;28;20085;-68
2021/06/14 05:28:57;;;;;;;2.80;0.60;;;17.60;53.60;;;;;;5048801;28;20371;-69
2021/06/14 05:31:22;;;;;;;3.63;0.80;;;18.00;51.90;;;;;;5048649;28;20098;-68
2021/06/14 05:33:48;;;;;;;4.97;0.77;;;18.20;50.60;;;;;;5048870;28;20556;-68
2021/06/14 05:36:14;;;;;;;2.67;0.65;;;18.40;51.30;;;;;;5048369;28;20132;-68
2021/06/14 05:38:39;;;;;;;5.90;0.82;;;18.60;50.10;;;;;;5049315;28;20465;-68
2021/06/14 05:41:05;;;;;;;3.50;0.75;;;18.80;49.90;;;;;;5048835;28;20485;-68
2021/06/14 05:43:31;;;;;;;4.28;0.68;;;18.90;48.60;;;;;;5047171;28;20029;-68
2021/06/14 05:45:56;;;;;;;7.72;0.77;;;18.80;49.00;;;;;;5048832;28;20509;-68
2021/06/14 05:48:22;;;;;;;5.90;0.63;;;18.70;50.30;;;;;;5048404;28;20086;-68
2021/06/14 05:50:48;;;;;;;4.20;0.73;;;18.80;49.70;;;;;;5048419;28;20059;-66
2021/06/14 05:53:13;;;;;;;3.03;1.05;;;18.80;49.30;;;;;;5047225;28;20094;-68
2021/06/14 05:55:40;;;;;;;4.25;0.80;;;18.70;49.90;;;;;;5048368;28;20033;-68
2021/06/14 05:58:05;;;;;;;2.65;0.75;;;18.50;50.60;;;;;;5048532;28;20036;-68
2021/06/14 06:00:31;;;;;;;4.82;0.55;;;18.40;51.10;;;;;;5048682;28;20424;-68
2021/06/14 06:02:57;;;;;;;7.70;0.70;;;18.10;51.60;;;;;;5048516;28;20033;-68
2021/06/14 06:05:23;;;;;;;3.60;0.63;;;18.10;52.30;;;;;;5047555;28;20064;-68
2021/06/14 06:07:48;;;;;;;3.78;1.05;;;18.10;52.10;;;;;;5048433;28;20036;-67
2021/06/14 06:10:14;;;;;;;6.53;0.60;;;18.30;51.80;;;;;;5047881;28;20044;-68
2021/06/14 06:12:40;;;;;;;0.95;0.40;;;18.40;51.80;;;;;;5048123;28;20021;-69
2021/06/14 06:15:08;;;;;;;6.22;1.40;;;18.40;52.40;;;;;;5048304;28;20041;-68
2021/06/14 06:17:33;;;;;;;2.10;0.50;;;18.50;51.90;;;;;;5048059;28;20025;-68
2021/06/14 06:19:59;;;;;;;1.75;0.50;;;18.50;51.70;;;;;;5047512;28;20025;-68
2021/06/14 06:22:25;;;;;;;3.28;0.50;;;18.40;51.70;;;;;;5048242;28;20524;-67
2021/06/14 06:24:51;;;;;;;1.65;0.65;;;18.20;52.10;;;;;;5047719;28;20398;-68
2021/06/14 06:27:16;;;;;;;3.08;0.75;;;18.00;52.40;;;;;;5047453;28;20029;-68
2021/06/14 06:29:42;;;;;;;4.80;1.17;;;18.00;53.10;;;;;;5048029;28;20052;-68
2021/06/14 06:32:08;;;;;;;2.55;0.50;;;18.10;53.20;;;;;;5047959;28;20108;-67
2021/06/14 06:34:34;;;;;;;5.07;0.60;;;18.10;53.70;;;;;;5047221;28;20655;-68
2021/06/14 06:37:00;;;;;;;2.70;0.50;;;18.10;52.90;;;;;;5047820;28;20055;-68
2021/06/14 06:39:25;;;;;;;3.90;0.80;;;18.00;53.40;;;;;;5047005;28;20033;-68
2021/06/14 06:41:51;;;;;;;6.28;0.50;;;18.00;53.50;;;;;;5047845;28;20031;-68
2021/06/14 06:44:18;;;;;;;7.85;0.68;;;18.00;53.50;;;;;;5047765;28;20052;-67
2021/06/14 06:46:43;;;;;;;4.28;0.80;;;17.90;53.50;;;;;;5047327;28;20018;-68
2021/06/14 06:49:09;;;;;;;3.10;0.40;;;18.00;53.80;;;;;;5047531;28;20047;-68
2021/06/14 06:51:34;;;;;;;3.22;0.70;;;18.00;53.00;;;;;;5046947;28;20043;-68
2021/06/14 06:54:12;;;;;;;3.03;0.57;;;18.00;52.80;;;;;;5047565;28;20405;-68
2021/06/14 06:56:49;;;;;;;3.58;0.70;;;18.00;52.90;;;;;;5047464;28;20032;-68
2021/06/14 06:59:15;;;;;;;4.75;0.90;;;17.90;53.20;;;;;;5047347;28;20036;-68
2021/06/14 07:01:41;;;;;;;2.17;0.50;;;17.90;53.50;;;;;;5047416;28;20421;-67
2021/06/14 07:04:07;;;;;;;3.17;1.00;;;17.90;53.00;;;;;;5046807;28;20029;-68
2021/06/14 07:06:34;;;;;;;5.25;0.93;;;17.90;54.10;;;;;;5047101;28;20025;-68
2021/06/14 07:09:00;;;;;;;9.77;0.90;;;18.00;55.30;;;;;;5046768;28;20045;-68
2021/06/14 07:11:28;;;;;;;2.50;0.68;;;18.00;53.50;;;;;;5047142;28;20540;-68
2021/06/14 07:13:54;;;;;;;4.95;0.85;;;18.20;52.80;;;;;;5046836;28;20474;-68
2021/06/14 07:16:20;;;;;;;2.28;0.68;;;18.10;53.10;;;;;;5045752;28;20112;-68
2021/06/14 07:18:47;;;;;;;6.90;0.80;;;18.10;53.60;;;;;;5046385;28;20060;-68
2021/06/14 07:21:13;;;;;;;7.38;0.50;;;18.20;53.40;;;;;;5046929;28;20120;-69
2021/06/14 07:23:39;;;;;;;8.98;0.90;;;18.40;53.10;;;;;;5046681;28;20541;-68
2021/06/14 07:26:05;;;;;;;5.70;1.17;;;18.70;51.90;;;;;;5046401;28;20044;-68
2021/06/14 07:28:33;;;;;;;7.57;0.70;;;18.80;51.80;;;;;;5046459;28;20033;-68
2021/06/14 07:30:59;;;;;;;2.40;0.70;;;19.50;50.20;;;;;;5046880;28;20044;-68
2021/06/14 07:33:25;;;;;;;5.07;0.63;;;20.80;47.20;;;;;;5044726;28;20029;-69
2021/06/14 07:35:50;;;;;;;4.25;0.73;;;22.20;43.60;;;;;;5046471;28;20047;-68
2021/06/14 07:38:16;;;;;;;2.42;0.63;;;23.00;41.40;;;;;;5046815;28;20025;-69
2021/06/14 07:40:43;;;;;;;5.57;1.00;;;22.80;40.90;;;;;;5046119;28;20029;-69
2021/06/14 07:43:11;;;;;;;5.57;0.98;;;22.00;42.50;;;;;;5046352;28;20025;-69
2021/06/14 07:45:37;;;;;;;5.65;0.90;;;22.00;42.30;;;;;;5046499;28;20045;-70
2021/06/14 07:48:03;;;;;;;2.28;0.88;;;21.80;43.20;;;;;;5046182;28;20043;-68
2021/06/14 07:50:29;;;;;;;2.13;0.70;;;22.30;43.00;;;;;;5045841;28;20045;-68
2021/06/14 07:52:55;;;;;;;4.85;0.93;;;23.30;41.10;;;;;;5046168;28;20096;-69
2021/06/14 07:55:21;;;;;;;2.75;0.90;;;24.30;39.00;;;;;;5046317;28;20108;-69
2021/06/14 07:57:47;;;;;;;4.55;0.80;;;25.20;38.90;;;;;;5044645;28;20421;-69
2021/06/14 08:00:13;;;;;;;2.60;0.82;;;25.10;36.40;;;;;;5046439;28;20796;-68
2021/06/14 08:02:40;;;;;;;5.38;1.02;;;24.90;36.70;;;;;;5045920;28;20029;-68
2021/06/14 08:05:07;;;;;;;3.38;0.90;;;24.20;37.90;;;;;;5046370;28;20083;-68
2021/06/14 08:07:33;;;;;;;2.45;0.90;;;23.40;39.30;;;;;;5046363;28;20017;-68
2021/06/14 08:10:04;;;;;;;2.67;0.80;;;22.60;41.20;;;;;;5046408;28;20041;-68
2021/06/14 08:12:32;;;;;;;5.60;0.98;;;21.90;43.30;;;;;;5046408;28;20268;-68
2021/06/14 08:14:57;;;;;;;2.15;0.80;;;21.60;44.80;;;;;;5046437;28;20135;-68
2021/06/14 08:17:23;;;;;;;4.40;1.05;;;21.80;45.20;;;;;;5045473;28;20154;-68
2021/06/14 08:19:57;;;;;;;5.35;0.90;;;22.30;44.60;;;;;;5046027;28;20135;-69
2021/06/14 08:25:09;;;;;;;2.45;0.90;;;23.80;41.40;;;;;;5046151;28;20094;-70
2021/06/14 08:27:38;;;;;;;14.38;1.02;;;24.50;40.30;;;;;;5046229;28;20577;-68
2021/06/14 08:30:12;;;;;;;3.22;1.15;;;25.10;38.50;;;;;;5045491;28;20071;-69
2021/06/14 08:32:38;;;;;;;5.65;1.13;;;25.70;36.00;;;;;;5045695;28;20025;-69
2021/06/14 08:35:13;;;;;;;8.07;1.80;;;25.80;36.90;;;;;;5045716;28;20425;-68
2021/06/14 08:37:38;;;;;;;2.40;0.95;;;26.10;34.90;;;;;;5045867;28;20513;-70
2021/06/14 08:40:05;;;;;;;2.75;1.10;;;26.50;35.30;;;;;;5047611;28;20021;-69
2021/06/14 08:42:31;;;;;;;2.38;0.77;;;26.80;35.30;;;;;;5050087;28;20075;-68
2021/06/14 08:44:57;;;;;;;5.25;0.90;;;26.90;35.00;;;;;;5049943;28;20103;-69
2021/06/14 08:47:23;;;;;;;3.50;0.90;;;26.90;34.80;;;;;;5049225;28;20737;-68
2021/06/14 08:49:50;;;;;;;2.50;0.70;;;27.30;33.80;;;;;;5048329;28;20063;-69
2021/06/14 08:52:15;;;;;;;3.10;1.15;;;27.30;33.90;;;;;;5049428;28;20017;-69
2021/06/14 08:54:43;;;;;;;1.95;0.90;;;27.60;34.50;;;;;;5048236;28;20413;-69
2021/06/14 08:57:10;;;;;;;2.05;0.88;;;26.90;32.70;;;;;;5049812;28;20025;-68
2021/06/14 08:59:37;;;;;;;7.82;0.85;;;26.30;34.50;;;;;;5049565;28;20033;-70
2021/06/14 09:02:03;;;;;;;5.28;1.17;;;26.40;35.00;;;;;;5049389;28;20025;-69
2021/06/14 09:04:29;;;;;;;3.13;0.80;;;26.30;34.10;;;;;;5049543;28;20033;-69
2021/06/14 09:06:54;;;;;;;2.58;0.77;;;26.40;34.90;;;;;;5049637;28;20033;-68
2021/06/14 09:09:20;;;;;;;2.28;0.85;;;26.70;34.80;;;;;;5048851;28;20533;-69
2021/06/14 09:11:53;;;;;;;2.30;1.05;;;27.10;33.50;;;;;;5049745;28;20037;-69
2021/06/14 09:14:21;;;;;;;4.30;1.02;;;27.30;33.80;;;;;;5049547;28;20608;-69
2021/06/14 09:16:50;;;;;;;2.13;0.88;;;27.50;33.30;;;;;;5048914;28;20036;-69
2021/06/14 09:19:24;;;;;;;2.55;1.13;;;28.10;33.30;;;;;;5049111;28;20025;-69
2021/06/14 09:21:54;;;;;;;1.55;0.70;;;28.40;31.40;;;;;;5048804;28;20119;-69
2021/06/14 09:24:21;;;;;;;2.45;0.80;;;28.80;32.40;;;;;;5048821;28;20547;-68
2021/06/14 09:26:47;;;;;;;4.80;0.70;;;29.60;30.80;;;;;;5049152;28;20406;-68
2021/06/14 09:29:15;;;;;;;3.53;0.80;;;29.30;29.10;;;;;;5048662;28;20040;-68
2021/06/14 09:31:49;;;;;;;2.42;0.80;;;28.00;30.00;;;;;;5048627;28;20029;-69
2021/06/14 09:34:17;;;;;;;2.50;0.85;;;26.60;31.60;;;;;;5048831;28;20120;-68
2021/06/14 09:36:57;;;;;;;4.97;0.75;;;26.90;33.30;;;;;;5047540;28;20043;-69
2021/06/14 09:39:23;;;;;;;6.80;1.23;;;27.10;31.50;;;;;;5048483;28;20067;-69
2021/06/14 09:41:51;;;;;;;2.08;0.70;;;27.20;30.70;;;;;;5049186;28;20068;-68
2021/06/14 09:44:31;;;;;;;1.95;0.60;;;26.80;31.90;;;;;;5048673;28;20021;-69
2021/06/14 09:47:09;;;;;;;2.35;0.75;;;26.20;33.10;;;;;;5048070;28;20056;-68
2021/06/14 09:49:35;;;;;;;4.80;0.75;;;25.70;32.90;;;;;;5047884;28;20040;-68
2021/06/14 09:52:02;;;;;;;6.53;1.33;;;25.50;34.00;;;;;;5047072;28;20017;-67
2021/06/14 09:54:35;;;;;;;3.40;1.23;;;26.10;35.20;;;;;;5048919;28;20059;-68
2021/06/14 09:57:04;;;;;;;1.65;0.77;;;26.50;35.60;;;;;;5048419;28;20043;-68
2021/06/14 09:59:39;;;;;;;8.38;1.20;;;26.90;32.70;;;;;;5048545;28;20948;-69
2021/06/14 10:02:16;;;;;;;1.63;0.87;;;27.10;32.30;;;;;;5048372;28;20025;-69
2021/06/14 10:04:42;;;;;;;3.95;0.70;;;27.30;34.10;;;;;;5048254;28;20107;-68
2021/06/14 10:07:12;;;;;;;2.10;0.60;;;27.30;32.80;;;;;;5048202;28;20029;-68
2021/06/14 10:09:40;;;;;;;3.50;1.08;;;27.30;32.60;;;;;;5048277;28;20040;-68
2021/06/14 10:12:18;;;;;;;1.13;0.60;;;26.90;33.70;;;;;;5048247;28;20048;-68
2021/06/14 10:14:49;;;;;;;3.22;1.15;;;26.40;33.80;;;;;;5048288;28;20516;-68
2021/06/14 10:17:15;;;;;;;2.65;0.63;;;25.80;35.00;;;;;;5047710;28;20040;-69
2021/06/14 10:19:41;;;;;;;4.68;1.13;;;25.80;35.10;;;;;;5048133;28;20421;-67
2021/06/14 10:22:07;;;;;;;3.83;0.80;;;25.80;36.10;;;;;;5047927;28;20559;-68
2021/06/14 10:24:33;;;;;;;1.83;0.60;;;25.70;35.30;;;;;;5048069;28;20055;-68
2021/06/14 10:26:59;;;;;;;2.00;0.80;;;25.50;35.50;;;;;;5047935;28;20460;-68
2021/06/14 10:29:25;;;;;;;2.15;0.75;;;25.00;34.00;;;;;;5047930;28;20020;-68
2021/06/14 10:31:52;;;;;;;1.02;0.47;;;24.70;35.50;;;;;;5046439;28;20123;-68
2021/06/14 10:34:18;;;;;;;2.30;0.65;;;24.50;35.60;;;;;;5047122;28;20025;-68
2021/06/14 10:36:49;;;;;;;3.47;0.90;;;24.70;36.20;;;;;;5046090;28;20029;-68
2021/06/14 10:39:16;;;;;;;2.92;0.73;;;25.00;34.90;;;;;;5047740;28;20505;-68
2021/06/14 10:41:44;;;;;;;2.08;0.68;;;25.40;33.30;;;;;;5047315;28;20104;-67
2021/06/14 10:44:10;;;;;;;1.45;0.60;;;25.40;32.30;;;;;;5047741;28;20107;-68
2021/06/14 10:46:41;;;;;;;1.98;0.70;;;25.30;32.60;;;;;;5047223;28;20079;-68
2021/06/14 10:49:09;;;;;;;4.30;0.75;;;25.20;33.30;;;;;;5047520;28;20438;-68
2021/06/14 10:51:35;;;;;;;2.88;0.60;;;25.00;34.10;;;;;;5046988;28;20074;-68
2021/06/14 10:54:08;;;;;;;3.28;0.70;;;25.00;31.30;;;;;;5047376;28;20086;-66
2021/06/14 10:56:34;;;;;;;5.72;0.55;;;24.70;33.00;;;;;;5046438;28;20085;-69
2021/06/14 10:59:03;;;;;;;2.92;0.50;;;24.40;33.10;;;;;;5047437;28;20033;-68
2021/06/14 11:01:35;;;;;;;2.72;0.90;;;23.90;34.20;;;;;;5046260;28;20410;-68
2021/06/14 11:04:03;;;;;;;3.60;0.75;;;23.50;36.60;;;;;;5046001;28;20401;-68
2021/06/14 11:06:31;;;;;;;4.13;0.77;;;23.30;38.70;;;;;;5046968;28;20032;-68
2021/06/14 11:09:08;;;;;;;2.13;0.75;;;23.30;39.20;;;;;;5047277;28;20414;-67
2021/06/14 11:12:03;;;;;;;4.18;0.80;;;23.20;40.00;;;;;;5045331;28;20501;-67
2021/06/14 11:14:41;;;;;;;4.10;0.60;;;23.60;41.50;;;;;;5042014;28;20102;-68
2021/06/14 11:17:34;;;;;;;3.17;0.77;;;24.10;38.50;;;;;;5046829;28;20024;-68
2021/06/14 11:19:59;;;;;;;1.85;0.70;;;24.30;38.40;;;;;;5046153;28;20041;-68
2021/06/14 11:22:37;;;;;;;2.28;0.70;;;24.30;38.30;;;;;;5047140;28;20047;-67
2021/06/14 11:25:24;;;;;;;2.00;0.60;;;24.30;38.00;;;;;;5046663;28;20037;-67
2021/06/14 11:27:50;;;;;;;3.28;0.70;;;24.30;37.70;;;;;;5046541;28;20029;-68
2021/06/14 11:30:22;;;;;;;2.65;0.70;;;24.40;38.70;;;;;;5045292;28;20037;-68
2021/06/14 11:32:48;;;;;;;2.10;0.60;;;24.40;38.10;;;;;;5046640;28;20025;-68
2021/06/14 11:35:14;;;;;;;1.70;0.80;;;24.40;38.60;;;;;;5046314;28;20393;-68
2021/06/14 11:37:46;;;;;;;2.08;0.70;;;24.10;35.90;;;;;;5046352;28;20029;-68
2021/06/14 11:40:15;;;;;;;15.77;1.08;;;24.10;34.30;;;;;;5046722;28;20032;-68
2021/06/14 11:42:59;;;;;;;3.47;0.80;;;24.00;35.40;;;;;;5046248;28;20032;-68
2021/06/14 11:45:38;;;;;;;3.38;0.80;;;24.20;35.80;;;;;;5045871;28;20029;-68
2021/06/14 11:48:16;;;;;;;2.15;0.60;;;24.30;35.30;;;;;;5044778;28;20409;-68
2021/06/14 11:50:42;;;;;;;3.85;0.85;;;24.00;35.40;;;;;;5046174;28;20333;-67
2021/06/14 11:53:09;;;;;;;4.43;0.90;;;23.90;38.10;;;;;;5046714;28;20490;-67
2021/06/14 11:55:38;;;;;;;3.63;0.75;;;23.80;36.20;;;;;;5046355;28;20024;-68
2021/06/14 11:58:06;;;;;;;1.48;0.60;;;23.70;36.70;;;;;;5045178;28;20054;-68
2021/06/14 12:00:39;;;;;;;7.13;0.70;;;23.60;37.20;;;;;;5045996;28;20116;-68
2021/06/14 12:03:25;;;;;;;3.22;0.80;;;23.40;37.00;;;;;;5046066;28;20086;-67
2021/06/14 12:05:53;;;;;;;2.25;0.77;;;23.30;38.30;;;;;;5046486;28;20052;-67
2021/06/14 12:08:21;;;;;;;1.90;0.82;;;23.30;37.80;;;;;;5046098;28;20092;-67
2021/06/14 12:10:52;;;;;;;2.58;1.02;;;23.50;38.40;;;;;;5046269;28;20520;-68
2021/06/14 12:13:19;;;;;;;3.40;0.82;;;23.70;37.60;;;;;;5045834;28;20226;-68
2021/06/14 12:15:49;;;;;;;1.00;0.55;;;23.60;37.30;;;;;;5045558;28;20500;-69
2021/06/14 12:18:15;;;;;;;2.65;0.90;;;23.50;37.70;;;;;;5045733;28;20493;-67
2021/06/14 12:21:03;;;;;;;1.95;0.60;;;23.50;38.20;;;;;;5046366;28;20116;-68
2021/06/14 12:23:40;;;;;;;3.63;0.80;;;23.60;36.70;;;;;;5045643;28;20482;-67
2021/06/14 12:26:11;;;;;;;20.60;2.33;;;23.60;35.80;;;;;;5046046;28;20025;-68
2021/06/14 12:28:38;;;;;;;7.25;1.05;;;23.90;37.00;;;;;;5046311;28;20485;-68
2021/06/14 12:31:06;;;;;;;5.25;0.77;;;24.10;35.90;;;;;;5045740;28;20079;-68
2021/06/14 12:33:34;;;;;;;3.85;0.77;;;24.30;36.80;;;;;;5045534;28;20029;-68
2021/06/14 12:36:01;;;;;;;2.25;0.80;;;24.70;36.30;;;;;;5045429;28;20533;-69
2021/06/14 12:38:30;;;;;;;4.35;0.60;;;25.30;35.40;;;;;;5044974;28;20545;-67
2021/06/14 12:41:01;;;;;;;1.42;0.90;;;25.40;34.60;;;;;;5045732;28;20028;-68
2021/06/14 12:43:31;;;;;;;4.00;0.82;;;25.50;34.40;;;;;;5045921;28;20033;-68
2021/06/14 12:45:58;;;;;;;2.97;0.70;;;25.60;32.50;;;;;;5045410;28;20095;-68
2021/06/14 12:48:24;;;;;;;2.08;0.60;;;25.60;31.50;;;;;;5045649;28;20013;-69
2021/06/14 12:50:52;;;;;;;7.07;1.48;;;25.30;33.00;;;;;;5045820;28;20547;-69
2021/06/14 12:53:20;;;;;;;3.83;0.70;;;25.20;33.40;;;;;;5045980;28;20021;-68
2021/06/14 12:55:48;;;;;;;5.95;0.70;;;25.00;32.50;;;;;;5045486;28;20025;-68
2021/06/14 12:58:16;;;;;;;9.88;0.88;;;25.00;33.60;;;;;;5045852;28;20842;-67
2021/06/14 13:00:45;;;;;;;3.97;0.65;;;25.10;33.00;;;;;;5045374;28;20401;-68
2021/06/14 13:03:11;;;;;;;3.75;0.60;;;25.00;32.40;;;;;;5045821;28;20144;-67
2021/06/14 13:05:41;;;;;;;7.82;0.85;;;24.70;32.90;;;;;;5045226;28;20082;-68